sensor_id;sensor_type;location;lat;lon;timestamp;pressure;altitude;pressure_sealevel;temperature;humidity
19112;BME280;9688;51.906;8.376;2023-03-15T00:00:35;100153.19;;;3.22;82.26
19112;BME280;9688;51.906;8.376;2023-03-15T00:03:21;100162.72;;;3.23;82.69
19112;BME280;9688;51.906;8.376;2023-03-15T00:06:08;100165.34;;;3.23;82.79
19112;BME280;9688;51.906;8.376;2023-03-15T00:08:54;100173.13;;;3.26;82.28
19112;BME280;9688;51.906;8.376;2023-03-15T00:11:39;100176.59;;;3.28;82.52
19112;BME280;9688;51.906;8.376;2023-03-15T00:14:27;100181.72;;;3.34;81.83
19112;BME280;9688;51.906;8.376;2023-03-15T00:17:12;100175.47;;;3.43;82.03
19112;BME280;9688;51.906;8.376;2023-03-15T00:19:58;100180.50;;;3.54;81.36
19112;BME280;9688;51.906;8.376;2023-03-15T00:22:44;100175.09;;;3.65;81.43
19112;BME280;9688;51.906;8.376;2023-03-15T00:25:30;100183.63;;;3.77;82.04
19112;BME280;9688;51.906;8.376;2023-03-15T00:28:16;100180.81;;;3.88;81.50
19112;BME280;9688;51.906;8.376;2023-03-15T00:31:05;100186.75;;;3.96;81.13
19112;BME280;9688;51.906;8.376;2023-03-15T00:33:51;100180.50;;;4.05;81.50
19112;BME280;9688;51.906;8.376;2023-03-15T00:36:37;100187.38;;;4.09;80.86
19112;BME280;9688;51.906;8.376;2023-03-15T00:39:27;100193.38;;;4.14;80.79
19112;BME280;9688;51.906;8.376;2023-03-15T00:42:13;100187.19;;;4.18;80.09
19112;BME280;9688;51.906;8.376;2023-03-15T00:44:59;100194.03;;;4.25;81.25
19112;BME280;9688;51.906;8.376;2023-03-15T00:47:47;100195.72;;;4.30;80.29
19112;BME280;9688;51.906;8.376;2023-03-15T00:50:33;100195.53;;;4.39;80.66
19112;BME280;9688;51.906;8.376;2023-03-15T00:53:19;100208.41;;;4.48;80.29
19112;BME280;9688;51.906;8.376;2023-03-15T00:56:08;100202.25;;;4.51;80.46
19112;BME280;9688;51.906;8.376;2023-03-15T00:58:56;100207.41;;;4.55;80.67
19112;BME280;9688;51.906;8.376;2023-03-15T01:01:41;100207.38;;;4.57;80.25
19112;BME280;9688;51.906;8.376;2023-03-15T01:04:29;100213.50;;;4.57;79.78
19112;BME280;9688;51.906;8.376;2023-03-15T01:07:15;100211.66;;;4.61;79.76
19112;BME280;9688;51.906;8.376;2023-03-15T01:10:01;100214.22;;;4.64;80.29
19112;BME280;9688;51.906;8.376;2023-03-15T01:12:52;100215.19;;;4.58;80.73
19112;BME280;9688;51.906;8.376;2023-03-15T01:15:39;100221.38;;;4.54;81.01
19112;BME280;9688;51.906;8.376;2023-03-15T01:18:25;100223.97;;;4.57;80.83
19112;BME280;9688;51.906;8.376;2023-03-15T01:21:13;100222.19;;;4.58;81.49
19112;BME280;9688;51.906;8.376;2023-03-15T01:24:00;100220.38;;;4.60;81.32
19112;BME280;9688;51.906;8.376;2023-03-15T01:26:45;100224.75;;;4.59;82.55
19112;BME280;9688;51.906;8.376;2023-03-15T01:29:31;100239.66;;;4.57;82.43
19112;BME280;9688;51.906;8.376;2023-03-15T01:32:17;100244.06;;;4.55;83.07
19112;BME280;9688;51.906;8.376;2023-03-15T01:35:05;100246.69;;;4.55;82.83
19112;BME280;9688;51.906;8.376;2023-03-15T01:37:53;100242.50;;;4.45;84.94
19112;BME280;9688;51.906;8.376;2023-03-15T01:40:41;100240.09;;;4.34;84.62
19112;BME280;9688;51.906;8.376;2023-03-15T01:43:29;100257.88;;;4.15;85.55
19112;BME280;9688;51.906;8.376;2023-03-15T01:46:26;100271.31;;;3.95;87.25
19112;BME280;9688;51.906;8.376;2023-03-15T01:49:14;100267.22;;;3.80;88.09
19112;BME280;9688;51.906;8.376;2023-03-15T01:52:04;100270.91;;;3.67;88.68
19112;BME280;9688;51.906;8.376;2023-03-15T01:54:55;100273.78;;;3.50;89.35
19112;BME280;9688;51.906;8.376;2023-03-15T01:57:45;100268.72;;;3.40;90.37
19112;BME280;9688;51.906;8.376;2023-03-15T02:00:33;100269.72;;;3.29;90.76
19112;BME280;9688;51.906;8.376;2023-03-15T02:03:22;100267.25;;;3.19;91.82
19112;BME280;9688;51.906;8.376;2023-03-15T02:06:10;100268.25;;;3.10;91.70
19112;BME280;9688;51.906;8.376;2023-03-15T02:09:03;100258.84;;;3.00;92.67
19112;BME280;9688;51.906;8.376;2023-03-15T02:11:52;100265.00;;;2.93;93.26
19112;BME280;9688;51.906;8.376;2023-03-15T02:14:40;100266.91;;;2.83;93.37
19112;BME280;9688;51.906;8.376;2023-03-15T02:17:34;100259.19;;;2.72;93.40
19112;BME280;9688;51.906;8.376;2023-03-15T02:20:29;100268.81;;;2.65;94.49
19112;BME280;9688;51.906;8.376;2023-03-15T02:23:21;100268.91;;;2.61;94.55
19112;BME280;9688;51.906;8.376;2023-03-15T02:26:15;100264.53;;;2.60;95.10
19112;BME280;9688;51.906;8.376;2023-03-15T02:29:04;100259.31;;;2.61;94.79
19112;BME280;9688;51.906;8.376;2023-03-15T02:31:51;100270.59;;;2.63;95.57
19112;BME280;9688;51.906;8.376;2023-03-15T02:34:36;100272.34;;;2.63;96.14
19112;BME280;9688;51.906;8.376;2023-03-15T02:37:22;100274.13;;;2.61;95.89
19112;BME280;9688;51.906;8.376;2023-03-15T02:40:16;100283.66;;;2.60;96.74
19112;BME280;9688;51.906;8.376;2023-03-15T02:43:04;100281.91;;;2.62;96.24
19112;BME280;9688;51.906;8.376;2023-03-15T02:45:52;100287.09;;;2.65;96.28
19112;BME280;9688;51.906;8.376;2023-03-15T02:48:39;100295.78;;;2.66;96.69
19112;BME280;9688;51.906;8.376;2023-03-15T02:51:28;100300.13;;;2.67;97.33
19112;BME280;9688;51.906;8.376;2023-03-15T02:54:13;100308.78;;;2.71;97.59
19112;BME280;9688;51.906;8.376;2023-03-15T02:56:59;100306.16;;;2.72;97.23
19112;BME280;9688;51.906;8.376;2023-03-15T02:59:45;100307.00;;;2.76;97.84
19112;BME280;9688;51.906;8.376;2023-03-15T03:02:35;100300.09;;;2.72;98.19
19112;BME280;9688;51.906;8.376;2023-03-15T03:05:21;100305.31;;;2.72;98.23
19112;BME280;9688;51.906;8.376;2023-03-15T03:08:07;100315.72;;;2.73;98.86
19112;BME280;9688;51.906;8.376;2023-03-15T03:10:53;100324.41;;;2.75;98.55
19112;BME280;9688;51.906;8.376;2023-03-15T03:13:39;100325.22;;;2.80;99.40
19112;BME280;9688;51.906;8.376;2023-03-15T03:16:25;100328.66;;;2.82;99.12
19112;BME280;9688;51.906;8.376;2023-03-15T03:19:12;100336.44;;;2.85;98.99
19112;BME280;9688;51.906;8.376;2023-03-15T03:21:57;100345.13;;;2.87;99.34
19112;BME280;9688;51.906;8.376;2023-03-15T03:24:43;100347.69;;;2.92;99.54
19112;BME280;9688;51.906;8.376;2023-03-15T03:27:29;100351.97;;;2.96;99.11
19112;BME280;9688;51.906;8.376;2023-03-15T03:30:15;100351.94;;;3.01;99.34
19112;BME280;9688;51.906;8.376;2023-03-15T03:33:01;100356.22;;;3.08;99.48
19112;BME280;9688;51.906;8.376;2023-03-15T03:35:48;100368.34;;;3.12;99.32
19112;BME280;9688;51.906;8.376;2023-03-15T03:38:34;100370.06;;;3.13;99.61
19112;BME280;9688;51.906;8.376;2023-03-15T03:41:19;100371.78;;;3.16;100.00
19112;BME280;9688;51.906;8.376;2023-03-15T03:44:05;100374.38;;;3.17;99.97
19112;BME280;9688;51.906;8.376;2023-03-15T03:46:50;100375.19;;;3.21;100.00
19112;BME280;9688;51.906;8.376;2023-03-15T03:49:36;100385.56;;;3.27;99.75
19112;BME280;9688;51.906;8.376;2023-03-15T03:52:23;100388.16;;;3.30;100.00
19112;BME280;9688;51.906;8.376;2023-03-15T03:55:09;100394.25;;;3.30;100.00
19112;BME280;9688;51.906;8.376;2023-03-15T03:57:56;100394.22;;;3.33;99.89
19112;BME280;9688;51.906;8.376;2023-03-15T04:00:42;100401.13;;;3.36;100.00
19112;BME280;9688;51.906;8.376;2023-03-15T04:03:29;100406.31;;;3.39;100.00
19112;BME280;9688;51.906;8.376;2023-03-15T04:06:15;100415.88;;;3.40;100.00
19112;BME280;9688;51.906;8.376;2023-03-15T04:09:02;100417.69;;;3.37;100.00
19112;BME280;9688;51.906;8.376;2023-03-15T04:11:48;100414.13;;;3.41;100.00
19112;BME280;9688;51.906;8.376;2023-03-15T04:14:34;100417.59;;;3.43;100.00
19112;BME280;9688;51.906;8.376;2023-03-15T04:17:19;100414.13;;;3.44;100.00
19112;BME280;9688;51.906;8.376;2023-03-15T04:20:06;100413.28;;;3.40;100.00
19112;BME280;9688;51.906;8.376;2023-03-15T04:22:54;100428.13;;;3.38;100.00
19112;BME280;9688;51.906;8.376;2023-03-15T04:25:41;100433.34;;;3.38;100.00
19112;BME280;9688;51.906;8.376;2023-03-15T04:28:27;100434.25;;;3.35;100.00
19112;BME280;9688;51.906;8.376;2023-03-15T04:31:13;100436.00;;;3.33;100.00
19112;BME280;9688;51.906;8.376;2023-03-15T04:33:59;100442.97;;;3.33;100.00
19112;BME280;9688;51.906;8.376;2023-03-15T04:36:45;100439.47;;;3.34;100.00
19112;BME280;9688;51.906;8.376;2023-03-15T04:39:31;100451.63;;;3.37;100.00
19112;BME280;9688;51.906;8.376;2023-03-15T04:42:18;100457.69;;;3.40;100.00
19112;BME280;9688;51.906;8.376;2023-03-15T04:45:05;100458.53;;;3.41;100.00
19112;BME280;9688;51.906;8.376;2023-03-15T04:47:52;100461.16;;;3.44;100.00
19112;BME280;9688;51.906;8.376;2023-03-15T04:50:37;100462.81;;;3.46;100.00
19112;BME280;9688;51.906;8.376;2023-03-15T04:53:24;100462.88;;;3.45;100.00
19112;BME280;9688;51.906;8.376;2023-03-15T04:56:09;100466.38;;;3.44;100.00
19112;BME280;9688;51.906;8.376;2023-03-15T04:58:56;100465.44;;;3.48;100.00
19112;BME280;9688;51.906;8.376;2023-03-15T05:01:41;100473.28;;;3.48;100.00
19112;BME280;9688;51.906;8.376;2023-03-15T05:04:27;100469.81;;;3.47;100.00
19112;BME280;9688;51.906;8.376;2023-03-15T05:07:13;100471.53;;;3.50;100.00
19112;BME280;9688;51.906;8.376;2023-03-15T05:09:58;100474.09;;;3.53;100.00
19112;BME280;9688;51.906;8.376;2023-03-15T05:12:44;100477.59;;;3.50;100.00
19112;BME280;9688;51.906;8.376;2023-03-15T05:15:31;100472.38;;;3.50;100.00
19112;BME280;9688;51.906;8.376;2023-03-15T05:18:17;100488.88;;;3.54;100.00
19112;BME280;9688;51.906;8.376;2023-03-15T05:21:02;100487.16;;;3.53;100.00
19112;BME280;9688;51.906;8.376;2023-03-15T05:23:49;100485.44;;;3.49;100.00
19112;BME280;9688;51.906;8.376;2023-03-15T05:26:34;100481.19;;;3.42;100.00
19112;BME280;9688;51.906;8.376;2023-03-15T05:29:21;100492.59;;;3.34;100.00
19112;BME280;9688;51.906;8.376;2023-03-15T05:32:09;100497.88;;;3.28;100.00
19112;BME280;9688;51.906;8.376;2023-03-15T05:34:54;100497.84;;;3.31;100.00
19112;BME280;9688;51.906;8.376;2023-03-15T05:37:40;100494.34;;;3.32;100.00
19112;BME280;9688;51.906;8.376;2023-03-15T05:40:25;100505.69;;;3.31;100.00
19112;BME280;9688;51.906;8.376;2023-03-15T05:43:13;100501.38;;;3.27;100.00
19112;BME280;9688;51.906;8.376;2023-03-15T05:45:58;100507.50;;;3.23;100.00
19112;BME280;9688;51.906;8.376;2023-03-15T05:48:46;100529.28;;;3.21;100.00
19112;BME280;9688;51.906;8.376;2023-03-15T05:51:31;100534.50;;;3.25;100.00
19112;BME280;9688;51.906;8.376;2023-03-15T05:54:17;100542.28;;;3.28;100.00
19112;BME280;9688;51.906;8.376;2023-03-15T05:57:03;100541.41;;;3.31;100.00
19112;BME280;9688;51.906;8.376;2023-03-15T05:59:49;100553.56;;;3.33;100.00
19112;BME280;9688;51.906;8.376;2023-03-15T06:02:35;100561.38;;;3.38;100.00
19112;BME280;9688;51.906;8.376;2023-03-15T06:05:22;100563.06;;;3.42;100.00
19112;BME280;9688;51.906;8.376;2023-03-15T06:08:08;100574.34;;;3.46;100.00
19112;BME280;9688;51.906;8.376;2023-03-15T06:10:53;100581.28;;;3.48;100.00
19112;BME280;9688;51.906;8.376;2023-03-15T06:13:39;100603.91;;;3.52;100.00
19112;BME280;9688;51.906;8.376;2023-03-15T06:16:25;100596.09;;;3.49;99.94
19112;BME280;9688;51.906;8.376;2023-03-15T06:19:11;100600.44;;;3.50;100.00
19112;BME280;9688;51.906;8.376;2023-03-15T06:21:57;100606.50;;;3.52;100.00
19112;BME280;9688;51.906;8.376;2023-03-15T06:24:43;100615.19;;;3.56;100.00
19112;BME280;9688;51.906;8.376;2023-03-15T06:27:29;100617.78;;;3.57;100.00
19112;BME280;9688;51.906;8.376;2023-03-15T06:30:15;100619.50;;;3.58;100.00
19112;BME280;9688;51.906;8.376;2023-03-15T06:33:01;100626.47;;;3.61;100.00
19112;BME280;9688;51.906;8.376;2023-03-15T06:35:47;100631.66;;;3.64;100.00
19112;BME280;9688;51.906;8.376;2023-03-15T06:38:34;100630.75;;;3.67;100.00
19112;BME280;9688;51.906;8.376;2023-03-15T06:41:19;100636.81;;;3.70;100.00
19112;BME280;9688;51.906;8.376;2023-03-15T06:44:07;100633.31;;;3.73;99.85
19112;BME280;9688;51.906;8.376;2023-03-15T06:46:52;100646.31;;;3.79;100.00
19112;BME280;9688;51.906;8.376;2023-03-15T06:49:38;100639.25;;;3.89;99.91
19112;BME280;9688;51.906;8.376;2023-03-15T06:52:25;100650.50;;;3.95;100.00
19112;BME280;9688;51.906;8.376;2023-03-15T06:55:14;100649.59;;;3.99;99.47
19112;BME280;9688;51.906;8.376;2023-03-15T06:58:04;100653.06;;;3.98;99.83
19112;BME280;9688;51.906;8.376;2023-03-15T07:00:56;100649.63;;;3.93;99.23
19112;BME280;9688;51.906;8.376;2023-03-15T07:03:42;100656.63;;;3.93;100.00
19112;BME280;9688;51.906;8.376;2023-03-15T07:06:27;100664.19;;;4.19;100.00
19112;BME280;9688;51.906;8.376;2023-03-15T07:09:16;100669.19;;;4.39;99.28
19112;BME280;9688;51.906;8.376;2023-03-15T07:12:03;100677.81;;;4.45;99.42
19112;BME280;9688;51.906;8.376;2023-03-15T07:14:49;100681.19;;;4.55;99.67
19112;BME280;9688;51.906;8.376;2023-03-15T07:17:35;100696.78;;;4.64;99.50
19112;BME280;9688;51.906;8.376;2023-03-15T07:20:21;100694.97;;;4.68;98.39
19112;BME280;9688;51.906;8.376;2023-03-15T07:23:06;100696.63;;;4.77;98.50
19112;BME280;9688;51.906;8.376;2023-03-15T07:25:55;100696.59;;;4.78;98.56
19112;BME280;9688;51.906;8.376;2023-03-15T07:28:44;100708.78;;;4.79;98.44
19112;BME280;9688;51.906;8.376;2023-03-15T07:31:30;100706.97;;;4.86;98.18
19112;BME280;9688;51.906;8.376;2023-03-15T07:34:15;100716.50;;;4.91;97.87
19112;BME280;9688;51.906;8.376;2023-03-15T07:37:00;100714.78;;;4.90;97.75
19112;BME280;9688;51.906;8.376;2023-03-15T07:39:46;100723.38;;;5.00;97.86
19112;BME280;9688;51.906;8.376;2023-03-15T07:42:32;100724.19;;;5.04;97.63
19112;BME280;9688;51.906;8.376;2023-03-15T07:45:19;100732.75;;;5.15;96.87
19112;BME280;9688;51.906;8.376;2023-03-15T07:48:05;100729.06;;;5.30;96.65
19112;BME280;9688;51.906;8.376;2023-03-15T07:50:51;100737.41;;;5.55;96.34
19112;BME280;9688;51.906;8.376;2023-03-15T07:53:37;100727.44;;;5.77;96.29
19112;BME280;9688;51.906;8.376;2023-03-15T07:56:23;100730.88;;;5.79;95.44
19112;BME280;9688;51.906;8.376;2023-03-15T07:59:09;100733.44;;;5.84;94.69
19112;BME280;9688;51.906;8.376;2023-03-15T08:01:56;100732.41;;;5.94;94.81
19112;BME280;9688;51.906;8.376;2023-03-15T08:04:42;100734.13;;;5.96;94.33
19112;BME280;9688;51.906;8.376;2023-03-15T08:07:28;100740.13;;;6.03;94.21
19112;BME280;9688;51.906;8.376;2023-03-15T08:10:15;100741.56;;;6.19;93.75
19112;BME280;9688;51.906;8.376;2023-03-15T08:13:10;100749.38;;;6.22;93.94
19112;BME280;9688;51.906;8.376;2023-03-15T08:15:57;100755.31;;;6.34;93.43
19112;BME280;9688;51.906;8.376;2023-03-15T08:18:44;100770.19;;;6.33;92.75
19112;BME280;9688;51.906;8.376;2023-03-15T08:21:32;100778.13;;;6.30;92.80
19112;BME280;9688;51.906;8.376;2023-03-15T08:24:18;100781.63;;;6.31;92.21
19112;BME280;9688;51.906;8.376;2023-03-15T08:27:04;100782.41;;;6.34;92.20
19112;BME280;9688;51.906;8.376;2023-03-15T08:29:51;100784.88;;;6.43;92.15
19112;BME280;9688;51.906;8.376;2023-03-15T08:32:43;100795.28;;;6.50;91.19
19112;BME280;9688;51.906;8.376;2023-03-15T08:35:32;100801.38;;;6.50;91.27
19112;BME280;9688;51.906;8.376;2023-03-15T08:38:18;100808.25;;;6.57;91.04
19112;BME280;9688;51.906;8.376;2023-03-15T08:41:04;100806.44;;;6.61;90.96
19112;BME280;9688;51.906;8.376;2023-03-15T08:43:50;100818.66;;;6.62;90.98
19112;BME280;9688;51.906;8.376;2023-03-15T08:46:35;100819.66;;;6.56;90.38
19112;BME280;9688;51.906;8.376;2023-03-15T08:49:21;100824.03;;;6.56;90.47
19112;BME280;9688;51.906;8.376;2023-03-15T08:52:10;100823.81;;;6.68;90.28
19112;BME280;9688;51.906;8.376;2023-03-15T08:55:00;100832.88;;;6.97;89.84
19112;BME280;9688;51.906;8.376;2023-03-15T08:57:47;100839.63;;;7.10;89.19
19112;BME280;9688;51.906;8.376;2023-03-15T09:00:32;100839.78;;;7.01;89.17
19112;BME280;9688;51.906;8.376;2023-03-15T09:03:18;100846.75;;;7.03;89.02
19112;BME280;9688;51.906;8.376;2023-03-15T09:06:05;100851.94;;;7.06;88.90
19112;BME280;9688;51.906;8.376;2023-03-15T09:08:53;100845.88;;;7.04;88.27
19112;BME280;9688;51.906;8.376;2023-03-15T09:11:39;100853.00;;;6.98;88.40
19112;BME280;9688;51.906;8.376;2023-03-15T09:14:24;100851.28;;;6.97;88.23
19112;BME280;9688;51.906;8.376;2023-03-15T09:17:10;100865.97;;;7.07;87.93
19112;BME280;9688;51.906;8.376;2023-03-15T09:19:56;100863.16;;;7.16;87.60
19112;BME280;9688;51.906;8.376;2023-03-15T09:22:42;100863.09;;;7.19;87.09
19112;BME280;9688;51.906;8.376;2023-03-15T09:25:29;100865.34;;;7.37;86.99
19112;BME280;9688;51.906;8.376;2023-03-15T09:28:15;100876.59;;;7.43;86.86
19112;BME280;9688;51.906;8.376;2023-03-15T09:31:03;100884.50;;;7.43;86.47
19112;BME280;9688;51.906;8.376;2023-03-15T09:33:49;100880.91;;;7.47;86.24
19112;BME280;9688;51.906;8.376;2023-03-15T09:36:35;100882.47;;;7.55;85.77
19112;BME280;9688;51.906;8.376;2023-03-15T09:39:21;100876.00;;;7.70;85.46
19112;BME280;9688;51.906;8.376;2023-03-15T09:42:15;100886.84;;;7.56;85.03
19112;BME280;9688;51.906;8.376;2023-03-15T09:45:12;100885.47;;;7.38;85.47
19112;BME280;9688;51.906;8.376;2023-03-15T09:48:08;100895.41;;;7.24;85.41
19112;BME280;9688;51.906;8.376;2023-03-15T09:50:59;100891.03;;;7.25;85.35
19112;BME280;9688;51.906;8.376;2023-03-15T09:53:49;100899.88;;;7.21;85.30
19112;BME280;9688;51.906;8.376;2023-03-15T09:56:40;100898.06;;;7.24;85.72
19112;BME280;9688;51.906;8.376;2023-03-15T09:59:34;100900.75;;;7.21;85.47
19112;BME280;9688;51.906;8.376;2023-03-15T10:02:23;100902.34;;;7.28;85.27
19112;BME280;9688;51.906;8.376;2023-03-15T10:05:18;100886.19;;;7.47;84.39
19112;BME280;9688;51.906;8.376;2023-03-15T10:08:09;100903.47;;;7.58;83.90
19112;BME280;9688;51.906;8.376;2023-03-15T10:11:01;100891.38;;;7.50;83.88
19112;BME280;9688;51.906;8.376;2023-03-15T10:14:00;100890.75;;;7.37;83.96
19112;BME280;9688;51.906;8.376;2023-03-15T10:16:50;100884.47;;;7.46;83.53
19112;BME280;9688;51.906;8.376;2023-03-15T10:19:39;100889.59;;;7.50;83.31
19112;BME280;9688;51.906;8.376;2023-03-15T10:22:36;100882.47;;;7.57;82.82
19112;BME280;9688;51.906;8.376;2023-03-15T10:25:26;100886.28;;;7.81;82.54
19112;BME280;9688;51.906;8.376;2023-03-15T10:28:19;100885.03;;;7.99;81.65
19112;BME280;9688;51.906;8.376;2023-03-15T10:31:11;100896.09;;;8.13;81.33
19112;BME280;9688;51.906;8.376;2023-03-15T10:34:00;100888.75;;;8.26;80.55
19112;BME280;9688;51.906;8.376;2023-03-15T10:36:47;100890.22;;;8.38;80.54
19112;BME280;9688;51.906;8.376;2023-03-15T10:39:37;100894.34;;;8.49;79.12
19112;BME280;9688;51.906;8.376;2023-03-15T10:42:25;100894.94;;;8.61;78.91
19112;BME280;9688;51.906;8.376;2023-03-15T10:45:18;100899.16;;;8.68;78.09
19112;BME280;9688;51.906;8.376;2023-03-15T10:48:07;100897.63;;;8.59;78.65
19112;BME280;9688;51.906;8.376;2023-03-15T10:50:55;100897.84;;;8.50;78.20
19112;BME280;9688;51.906;8.376;2023-03-15T10:53:52;100895.59;;;8.69;77.15
19112;BME280;9688;51.906;8.376;2023-03-15T10:56:43;100895.03;;;8.90;76.94
19112;BME280;9688;51.906;8.376;2023-03-15T10:59:31;100885.13;;;8.99;75.70
19112;BME280;9688;51.906;8.376;2023-03-15T11:02:19;100883.84;;;8.81;75.57
19112;BME280;9688;51.906;8.376;2023-03-15T11:05:16;100887.19;;;8.87;74.77
19112;BME280;9688;51.906;8.376;2023-03-15T11:08:10;100883.47;;;8.94;74.71
19112;BME280;9688;51.906;8.376;2023-03-15T11:10:58;100900.59;;;9.11;73.60
19112;BME280;9688;51.906;8.376;2023-03-15T11:13:54;100895.03;;;9.22;73.00
19112;BME280;9688;51.906;8.376;2023-03-15T11:16:46;100893.88;;;9.32;72.10
19112;BME280;9688;51.906;8.376;2023-03-15T11:19:38;100893.00;;;9.31;71.97
19112;BME280;9688;51.906;8.376;2023-03-15T11:22:37;100907.38;;;9.20;71.86
19112;BME280;9688;51.906;8.376;2023-03-15T11:25:30;100905.22;;;9.03;71.37
19112;BME280;9688;51.906;8.376;2023-03-15T11:28:22;100921.69;;;9.12;70.73
19112;BME280;9688;51.906;8.376;2023-03-15T11:31:10;100922.78;;;9.35;70.84
19112;BME280;9688;51.906;8.376;2023-03-15T11:33:59;100925.72;;;9.55;69.40
19112;BME280;9688;51.906;8.376;2023-03-15T11:36:52;100920.81;;;9.73;68.38
19112;BME280;9688;51.906;8.376;2023-03-15T11:39:44;100923.81;;;9.90;67.06
19112;BME280;9688;51.906;8.376;2023-03-15T11:42:37;100927.53;;;9.83;67.63
19112;BME280;9688;51.906;8.376;2023-03-15T11:45:30;100931.22;;;9.77;66.14
19112;BME280;9688;51.906;8.376;2023-03-15T11:48:24;100922.63;;;9.71;66.39
19112;BME280;9688;51.906;8.376;2023-03-15T11:51:12;100921.34;;;9.84;66.31
19112;BME280;9688;51.906;8.376;2023-03-15T11:54:05;100928.66;;;10.04;65.50
19112;BME280;9688;51.906;8.376;2023-03-15T11:56:54;100927.38;;;10.17;64.46
19112;BME280;9688;51.906;8.376;2023-03-15T11:59:45;100935.31;;;10.16;64.97
19112;BME280;9688;51.906;8.376;2023-03-15T12:02:47;100931.56;;;9.95;64.55
19112;BME280;9688;51.906;8.376;2023-03-15T12:05:44;100933.72;;;9.82;64.43
19112;BME280;9688;51.906;8.376;2023-03-15T12:08:47;100930.56;;;9.71;63.86
19112;BME280;9688;51.906;8.376;2023-03-15T12:11:38;100931.41;;;9.71;64.16
19112;BME280;9688;51.906;8.376;2023-03-15T12:14:29;100934.75;;;9.48;64.20
19112;BME280;9688;51.906;8.376;2023-03-15T12:17:42;100940.03;;;9.47;63.27
19112;BME280;9688;51.906;8.376;2023-03-15T12:20:34;100933.78;;;9.51;63.10
19112;BME280;9688;51.906;8.376;2023-03-15T12:23:30;100945.94;;;9.56;62.96
19112;BME280;9688;51.906;8.376;2023-03-15T12:26:26;100936.47;;;9.79;61.88
19112;BME280;9688;51.906;8.376;2023-03-15T12:29:21;100949.88;;;10.01;61.78
19112;BME280;9688;51.906;8.376;2023-03-15T12:32:12;100955.41;;;9.93;61.21
19112;BME280;9688;51.906;8.376;2023-03-15T12:35:07;100946.47;;;9.97;61.44
19112;BME280;9688;51.906;8.376;2023-03-15T12:37:59;100949.16;;;10.24;59.83
19112;BME280;9688;51.906;8.376;2023-03-15T12:40:51;100948.31;;;10.52;59.36
19112;BME280;9688;51.906;8.376;2023-03-15T12:43:39;100948.59;;;10.69;58.73
19112;BME280;9688;51.906;8.376;2023-03-15T12:46:57;100934.75;;;10.87;57.55
19112;BME280;9688;51.906;8.376;2023-03-15T12:49:44;100933.09;;;11.10;57.35
19112;BME280;9688;51.906;8.376;2023-03-15T12:52:40;100944.88;;;11.25;55.96
19112;BME280;9688;51.906;8.376;2023-03-15T12:55:27;100936.09;;;11.24;56.08
19112;BME280;9688;51.906;8.376;2023-03-15T12:58:19;100940.31;;;11.05;55.85
19112;BME280;9688;51.906;8.376;2023-03-15T13:01:11;100939.31;;;10.57;55.44
19112;BME280;9688;51.906;8.376;2023-03-15T13:04:01;100942.50;;;10.40;55.88
19112;BME280;9688;51.906;8.376;2023-03-15T13:07:13;100939.41;;;10.26;55.95
19112;BME280;9688;51.906;8.376;2023-03-15T13:13:50;100926.34;;;10.21;57.10
19112;BME280;9688;51.906;8.376;2023-03-15T13:16:43;100941.22;;;10.24;57.38
19112;BME280;9688;51.906;8.376;2023-03-15T13:19:34;100936.34;;;10.40;55.26
19112;BME280;9688;51.906;8.376;2023-03-15T13:22:29;100934.47;;;10.43;55.07
19112;BME280;9688;51.906;8.376;2023-03-15T13:25:21;100929.56;;;10.59;54.97
19112;BME280;9688;51.906;8.376;2023-03-15T13:28:17;100938.38;;;10.58;54.04
19112;BME280;9688;51.906;8.376;2023-03-15T13:31:19;100945.50;;;10.56;54.83
19112;BME280;9688;51.906;8.376;2023-03-15T13:34:12;100948.81;;;10.63;53.39
19112;BME280;9688;51.906;8.376;2023-03-15T13:36:59;100944.28;;;10.66;53.81
19112;BME280;9688;51.906;8.376;2023-03-15T13:39:54;100942.59;;;10.64;53.07
19112;BME280;9688;51.906;8.376;2023-03-15T13:42:41;100942.75;;;10.59;53.70
19112;BME280;9688;51.906;8.376;2023-03-15T13:45:26;100948.50;;;10.45;54.22
19112;BME280;9688;51.906;8.376;2023-03-15T13:48:13;100952.41;;;10.34;53.79
19112;BME280;9688;51.906;8.376;2023-03-15T13:51:03;100948.50;;;10.17;52.71
19112;BME280;9688;51.906;8.376;2023-03-15T13:53:51;100947.06;;;10.07;53.73
19112;BME280;9688;51.906;8.376;2023-03-15T13:56:55;100947.78;;;10.12;52.45
19112;BME280;9688;51.906;8.376;2023-03-15T13:59:46;100940.06;;;10.34;53.37
19112;BME280;9688;51.906;8.376;2023-03-15T14:02:49;100949.06;;;10.55;51.91
19112;BME280;9688;51.906;8.376;2023-03-15T14:05:44;100950.69;;;10.59;51.17
19112;BME280;9688;51.906;8.376;2023-03-15T14:08:34;100953.19;;;10.89;50.88
19112;BME280;9688;51.906;8.376;2023-03-15T14:11:34;100945.34;;;11.12;49.82
19112;BME280;9688;51.906;8.376;2023-03-15T14:14:26;100945.06;;;11.20;49.37
19112;BME280;9688;51.906;8.376;2023-03-15T14:17:18;100941.13;;;11.07;50.32
19112;BME280;9688;51.906;8.376;2023-03-15T14:20:15;100944.38;;;10.90;49.48
19112;BME280;9688;51.906;8.376;2023-03-15T14:23:04;100957.75;;;10.85;49.69
19112;BME280;9688;51.906;8.376;2023-03-15T14:25:52;100957.00;;;10.82;49.68
19112;BME280;9688;51.906;8.376;2023-03-15T14:28:39;100964.19;;;10.78;48.91
19112;BME280;9688;51.906;8.376;2023-03-15T14:31:27;100962.59;;;10.73;48.66
19112;BME280;9688;51.906;8.376;2023-03-15T14:34:19;100971.63;;;10.65;49.00
19112;BME280;9688;51.906;8.376;2023-03-15T14:37:27;100967.97;;;10.69;48.81
19112;BME280;9688;51.906;8.376;2023-03-15T14:40:21;100969.59;;;10.74;47.68
19112;BME280;9688;51.906;8.376;2023-03-15T14:43:09;100965.28;;;10.71;48.63
19112;BME280;9688;51.906;8.376;2023-03-15T14:45:56;100975.91;;;10.69;48.81
19112;BME280;9688;51.906;8.376;2023-03-15T14:48:42;100980.31;;;10.69;48.23
19112;BME280;9688;51.906;8.376;2023-03-15T14:51:30;100984.81;;;10.67;48.09
19112;BME280;9688;51.906;8.376;2023-03-15T14:54:16;100980.56;;;10.61;48.20
19112;BME280;9688;51.906;8.376;2023-03-15T14:57:03;100987.94;;;10.52;48.76
19112;BME280;9688;51.906;8.376;2023-03-15T14:59:50;100996.97;;;10.44;48.81
19112;BME280;9688;51.906;8.376;2023-03-15T15:02:36;100993.44;;;10.16;49.17
19112;BME280;9688;51.906;8.376;2023-03-15T15:05:25;100990.13;;;9.79;49.48